Bryon Bay, Australia
Current Conditions -  °F | °C
As of 3:00 PM on Monday 24 Nov 2014 (Local Time) from YBNA Reporting Station
Clear Clear  
Wind Chill: 82°   Ceiling: Unl
Heat Index: 85°   Visibility: 6mi
Dew Point: 66°   Wind: 24mph
Humidity: 58%   Direction: 360°N
Pressure: 29.88"   Gusts: NA
Location:  28.66°S, 153.62°E
Report Text: YBNA 240400Z AUTO 36021KT 9999 // NCD 28/19 Q1012
Loading
Personal Weather Stations






























Interactive Weather Map New forecast layout! Learn more

10-Day Weather Forecast

Advertisements
Track Severe Weather on mobile